SHT8H EGLL-EGPH
Flight info
| Callsign | SHT8H |
|---|---|
| Flight time | 0h 59m |
| Altitude | 32000 |
| Route | ULTIB T420 TNT UN57 POL UN601 RIBEL DCT INPIP |
| Aircraft | A320/M-SDE3FGHIRWY/LB1 |
Departure
| Time | 2026-04-21 17:06 |
|---|---|
| Airport | London Heathrow Airport (EGLL) |
Arrival
| Time | 2026-04-21 18:06 |
|---|---|
| Airport | Edinburgh Airport (EGPH) |
| Time | Latitude | Longitude | Altitude | Speed | Heading |
|---|---|---|---|---|---|
| 2026-04-21 16:31 | 51.47048 | -0.48584 | 90 ft | 0 kts | 269° |
| 2026-04-21 16:56 | 51.47048 | -0.48580 | 89 ft | 3 kts | 269° |
| 2026-04-21 16:57 | 51.47049 | -0.48547 | 91 ft | 3 kts | 264° |
| 2026-04-21 16:57 | 51.47052 | -0.48515 | 88 ft | 3 kts | 252° |
| 2026-04-21 16:57 | 51.47060 | -0.48486 | 88 ft | 3 kts | 226° |
| 2026-04-21 16:57 | 51.47074 | -0.48472 | 90 ft | 2 kts | 180° |
| 2026-04-21 16:58 | 51.47075 | -0.48472 | 90 ft | 0 kts | 179° |
| 2026-04-21 17:00 | 51.47070 | -0.48472 | 86 ft | 2 kts | 179° |
| 2026-04-21 17:00 | 51.47051 | -0.48472 | 90 ft | 5 kts | 179° |
| 2026-04-21 17:00 | 51.46984 | -0.48470 | 90 ft | 9 kts | 179° |
| 2026-04-21 17:01 | 51.46910 | -0.48469 | 90 ft | 12 kts | 180° |
| 2026-04-21 17:01 | 51.46817 | -0.48469 | 86 ft | 15 kts | 180° |
| 2026-04-21 17:01 | 51.46706 | -0.48468 | 86 ft | 16 kts | 179° |
| 2026-04-21 17:01 | 51.46619 | -0.48467 | 86 ft | 8 kts | 180° |
| 2026-04-21 17:02 | 51.46595 | -0.48467 | 86 ft | 0 kts | 180° |
| 2026-04-21 17:04 | 51.46588 | -0.48467 | 86 ft | 4 kts | 180° |
| 2026-04-21 17:04 | 51.46520 | -0.48468 | 87 ft | 10 kts | 180° |
| 2026-04-21 17:04 | 51.46478 | -0.48406 | 87 ft | 10 kts | 94° |
| 2026-04-21 17:05 | 51.46479 | -0.48350 | 87 ft | 0 kts | 88° |
| 2026-04-21 17:06 | 51.46480 | -0.47913 | 87 ft | 77 kts | 90° |
| 2026-04-21 17:06 | 51.46486 | -0.46711 | 91 ft | 136 kts | 89° |
| 2026-04-21 17:06 | 51.46495 | -0.45028 | 499 ft | 155 kts | 89° |
| 2026-04-21 17:06 | 51.46510 | -0.43278 | 1336 ft | 159 kts | 86° |
| 2026-04-21 17:07 | 51.46546 | -0.42057 | 1672 ft | 171 kts | 81° |
| 2026-04-21 17:07 | 51.47356 | -0.39640 | 2186 ft | 208 kts | 44° |
| 2026-04-21 17:07 | 51.48464 | -0.37921 | 2748 ft | 230 kts | 50° |
| 2026-04-21 17:07 | 51.49488 | -0.35967 | 3777 ft | 233 kts | 53° |
| 2026-04-21 17:08 | 51.50498 | -0.33905 | 4805 ft | 238 kts | 55° |
| 2026-04-21 17:08 | 51.51526 | -0.31760 | 5646 ft | 247 kts | 56° |
| 2026-04-21 17:08 | 51.52448 | -0.29438 | 6007 ft | 248 kts | 71° |
| 2026-04-21 17:08 | 51.52959 | -0.26797 | 7015 ft | 249 kts | 74° |
| 2026-04-21 17:09 | 51.54096 | -0.21436 | 8929 ft | 259 kts | 68° |
| 2026-04-21 17:09 | 51.55229 | -0.19163 | 9844 ft | 272 kts | 37° |
| 2026-04-21 17:09 | 51.57056 | -0.18221 | 10755 ft | 288 kts | 2° |
| 2026-04-21 17:10 | 51.59046 | -0.18949 | 11254 ft | 316 kts | 335° |
| 2026-04-21 17:10 | 51.60790 | -0.21315 | 11670 ft | 342 kts | 313° |
| 2026-04-21 17:10 | 51.62460 | -0.24092 | 12392 ft | 348 kts | 322° |
| 2026-04-21 17:10 | 51.64428 | -0.26381 | 13240 ft | 350 kts | 332° |
| 2026-04-21 17:11 | 51.65587 | -0.27523 | 13801 ft | 351 kts | 331° |
| 2026-04-21 17:11 | 51.67160 | -0.29040 | 14447 ft | 354 kts | 332° |
| 2026-04-21 17:11 | 51.69284 | -0.31068 | 15337 ft | 356 kts | 331° |
| 2026-04-21 17:11 | 51.71425 | -0.33110 | 16165 ft | 359 kts | 332° |
| 2026-04-21 17:12 | 51.73581 | -0.35172 | 16997 ft | 361 kts | 331° |
| 2026-04-21 17:12 | 51.75748 | -0.37262 | 17834 ft | 364 kts | 330° |
| 2026-04-21 17:12 | 51.77895 | -0.39347 | 18556 ft | 367 kts | 330° |
| 2026-04-21 17:12 | 51.80085 | -0.41480 | 19376 ft | 367 kts | 329° |
| 2026-04-21 17:13 | 51.82265 | -0.43600 | 20291 ft | 366 kts | 329° |
| 2026-04-21 17:13 | 51.84440 | -0.45713 | 21284 ft | 364 kts | 329° |
| 2026-04-21 17:13 | 51.86609 | -0.47824 | 22161 ft | 364 kts | 329° |
| 2026-04-21 17:13 | 51.88785 | -0.49939 | 23056 ft | 364 kts | 328° |
| 2026-04-21 17:14 | 51.90955 | -0.52049 | 23948 ft | 364 kts | 328° |
| 2026-04-21 17:14 | 51.93127 | -0.54163 | 24692 ft | 364 kts | 328° |
| 2026-04-21 17:14 | 51.95302 | -0.56281 | 25421 ft | 365 kts | 328° |
| 2026-04-21 17:14 | 51.97453 | -0.58376 | 26089 ft | 366 kts | 327° |
| 2026-04-21 17:15 | 51.99643 | -0.60512 | 26765 ft | 368 kts | 327° |
| 2026-04-21 17:15 | 52.01837 | -0.62661 | 27429 ft | 369 kts | 327° |
| 2026-04-21 17:15 | 52.04041 | -0.64823 | 28106 ft | 371 kts | 327° |
| 2026-04-21 17:15 | 52.06258 | -0.67002 | 28734 ft | 373 kts | 327° |
| 2026-04-21 17:16 | 52.08482 | -0.69190 | 29341 ft | 375 kts | 326° |
| 2026-04-21 17:16 | 52.10714 | -0.71387 | 29948 ft | 376 kts | 326° |
| 2026-04-21 17:16 | 52.12953 | -0.73591 | 30511 ft | 377 kts | 326° |
| 2026-04-21 17:16 | 52.15170 | -0.75773 | 30935 ft | 379 kts | 326° |
| 2026-04-21 17:17 | 52.17434 | -0.78006 | 31316 ft | 382 kts | 326° |
| 2026-04-21 17:17 | 52.19718 | -0.80265 | 31677 ft | 386 kts | 326° |
| 2026-04-21 17:17 | 52.22020 | -0.82550 | 32028 ft | 389 kts | 326° |
| 2026-04-21 17:17 | 52.24339 | -0.84851 | 32281 ft | 390 kts | 326° |
| 2026-04-21 17:18 | 52.26627 | -0.87118 | 32324 ft | 377 kts | 326° |
| 2026-04-21 17:18 | 52.28842 | -0.89310 | 32348 ft | 369 kts | 327° |
| 2026-04-21 17:18 | 52.33177 | -0.93622 | 32331 ft | 366 kts | 326° |
| 2026-04-21 17:19 | 52.37526 | -0.97959 | 32344 ft | 366 kts | 326° |
| 2026-04-21 17:19 | 52.41872 | -1.02306 | 32350 ft | 366 kts | 326° |
| 2026-04-21 17:20 | 52.46219 | -1.06669 | 32297 ft | 366 kts | 326° |
| 2026-04-21 17:20 | 52.50563 | -1.11032 | 32280 ft | 366 kts | 326° |
| 2026-04-21 17:21 | 52.54879 | -1.15379 | 32266 ft | 367 kts | 326° |
| 2026-04-21 17:21 | 52.59231 | -1.19759 | 32241 ft | 367 kts | 326° |
| 2026-04-21 17:22 | 52.63586 | -1.24148 | 32220 ft | 367 kts | 326° |
| 2026-04-21 17:22 | 52.67933 | -1.28561 | 32220 ft | 367 kts | 326° |
| 2026-04-21 17:23 | 52.72278 | -1.32980 | 32223 ft | 367 kts | 326° |
| 2026-04-21 17:23 | 52.74425 | -1.35162 | 32387 ft | 367 kts | 326° |
| 2026-04-21 17:23 | 52.76600 | -1.37378 | 32402 ft | 367 kts | 326° |
| 2026-04-21 17:24 | 52.80954 | -1.41827 | 32380 ft | 369 kts | 326° |
| 2026-04-21 17:24 | 52.85323 | -1.46292 | 32375 ft | 369 kts | 326° |
| 2026-04-21 17:25 | 52.89694 | -1.50781 | 32368 ft | 370 kts | 326° |
| 2026-04-21 17:25 | 52.94037 | -1.55250 | 32361 ft | 370 kts | 325° |
| 2026-04-21 17:26 | 52.98406 | -1.59753 | 32367 ft | 370 kts | 325° |
| 2026-04-21 17:26 | 53.02773 | -1.64275 | 32377 ft | 370 kts | 326° |
| 2026-04-21 17:27 | 53.07356 | -1.68216 | 32373 ft | 375 kts | 336° |
| 2026-04-21 17:27 | 53.12249 | -1.71222 | 32371 ft | 375 kts | 336° |
| 2026-04-21 17:28 | 53.17141 | -1.74262 | 32375 ft | 375 kts | 336° |
| 2026-04-21 17:28 | 53.21998 | -1.77294 | 32377 ft | 375 kts | 336° |
| 2026-04-21 17:29 | 53.26895 | -1.80351 | 32382 ft | 376 kts | 336° |
| 2026-04-21 17:29 | 53.31814 | -1.83424 | 32375 ft | 378 kts | 336° |
| 2026-04-21 17:30 | 53.36749 | -1.86499 | 32382 ft | 379 kts | 336° |
| 2026-04-21 17:30 | 53.41660 | -1.89575 | 32374 ft | 379 kts | 336° |
| 2026-04-21 17:31 | 53.46605 | -1.92690 | 32382 ft | 380 kts | 336° |
| 2026-04-21 17:31 | 53.51552 | -1.95814 | 32383 ft | 380 kts | 336° |
| 2026-04-21 17:32 | 53.56496 | -1.98947 | 32393 ft | 380 kts | 336° |
| 2026-04-21 17:32 | 53.61441 | -2.02074 | 32399 ft | 380 kts | 336° |
| 2026-04-21 17:33 | 53.66355 | -2.05193 | 32400 ft | 380 kts | 336° |
| 2026-04-21 17:33 | 53.71299 | -2.08352 | 32373 ft | 380 kts | 335° |
| 2026-04-21 17:34 | 53.76234 | -2.11535 | 32395 ft | 380 kts | 335° |
| 2026-04-21 17:34 | 53.81135 | -2.14867 | 32399 ft | 380 kts | 334° |
| 2026-04-21 17:35 | 53.86026 | -2.18259 | 32400 ft | 380 kts | 334° |
| 2026-04-21 17:35 | 53.90895 | -2.21607 | 32400 ft | 380 kts | 334° |
| 2026-04-21 17:36 | 53.95799 | -2.24968 | 32411 ft | 380 kts | 334° |
| 2026-04-21 17:36 | 54.00711 | -2.28336 | 32408 ft | 381 kts | 335° |
| 2026-04-21 17:37 | 54.05636 | -2.31743 | 32405 ft | 383 kts | 334° |
| 2026-04-21 17:37 | 54.10546 | -2.35147 | 32399 ft | 384 kts | 335° |
| 2026-04-21 17:38 | 54.15499 | -2.38569 | 32404 ft | 384 kts | 335° |
| 2026-04-21 17:38 | 54.20459 | -2.42005 | 32410 ft | 385 kts | 335° |
| 2026-04-21 17:39 | 54.25426 | -2.45461 | 32417 ft | 386 kts | 335° |
| 2026-04-21 17:39 | 54.30420 | -2.48950 | 32404 ft | 389 kts | 335° |
| 2026-04-21 17:40 | 54.35409 | -2.52448 | 32409 ft | 391 kts | 335° |
| 2026-04-21 17:40 | 54.40451 | -2.56001 | 32271 ft | 393 kts | 335° |
| 2026-04-21 17:41 | 54.42972 | -2.57778 | 32014 ft | 391 kts | 335° |
| 2026-04-21 17:41 | 54.45478 | -2.59546 | 31757 ft | 388 kts | 335° |
| 2026-04-21 17:41 | 54.47971 | -2.61304 | 31521 ft | 387 kts | 335° |
| 2026-04-21 17:41 | 54.50472 | -2.63067 | 31269 ft | 390 kts | 335° |
| 2026-04-21 17:42 | 54.52980 | -2.64837 | 31024 ft | 389 kts | 335° |
| 2026-04-21 17:42 | 54.55473 | -2.66596 | 30781 ft | 387 kts | 335° |
| 2026-04-21 17:42 | 54.57927 | -2.68332 | 30542 ft | 385 kts | 335° |
| 2026-04-21 17:42 | 54.60392 | -2.70082 | 30238 ft | 379 kts | 334° |
| 2026-04-21 17:43 | 54.62816 | -2.71806 | 29953 ft | 375 kts | 334° |
| 2026-04-21 17:43 | 54.65219 | -2.73519 | 29673 ft | 373 kts | 334° |
| 2026-04-21 17:43 | 54.67620 | -2.75232 | 29376 ft | 373 kts | 334° |
| 2026-04-21 17:43 | 54.70009 | -2.76936 | 28892 ft | 370 kts | 335° |
| 2026-04-21 17:44 | 54.72386 | -2.78639 | 28404 ft | 369 kts | 335° |
| 2026-04-21 17:44 | 54.74764 | -2.80346 | 27803 ft | 372 kts | 335° |
| 2026-04-21 17:44 | 54.77156 | -2.82066 | 27303 ft | 372 kts | 337° |
| 2026-04-21 17:44 | 54.79553 | -2.83784 | 26786 ft | 373 kts | 337° |
| 2026-04-21 17:45 | 54.81927 | -2.85484 | 26284 ft | 374 kts | 337° |
| 2026-04-21 17:45 | 54.84328 | -2.87212 | 25811 ft | 374 kts | 337° |
| 2026-04-21 17:45 | 54.86737 | -2.88948 | 25346 ft | 375 kts | 338° |
| 2026-04-21 17:45 | 54.89142 | -2.90685 | 24863 ft | 375 kts | 338° |
| 2026-04-21 17:46 | 54.91550 | -2.92427 | 24413 ft | 374 kts | 338° |
| 2026-04-21 17:46 | 54.93960 | -2.94168 | 23909 ft | 375 kts | 339° |
| 2026-04-21 17:46 | 54.96373 | -2.95910 | 23310 ft | 376 kts | 339° |
| 2026-04-21 17:46 | 54.98782 | -2.97647 | 22846 ft | 373 kts | 339° |
| 2026-04-21 17:47 | 55.01138 | -2.99356 | 22427 ft | 370 kts | 339° |
| 2026-04-21 17:47 | 55.03503 | -3.01079 | 21945 ft | 368 kts | 339° |
| 2026-04-21 17:47 | 55.05859 | -3.02801 | 21462 ft | 366 kts | 340° |
| 2026-04-21 17:47 | 55.08203 | -3.04516 | 21018 ft | 364 kts | 340° |
| 2026-04-21 17:48 | 55.09738 | -3.05638 | 20652 ft | 359 kts | 339° |
| 2026-04-21 17:48 | 55.12817 | -3.07889 | 20068 ft | 356 kts | 340° |
| 2026-04-21 17:48 | 55.14328 | -3.08994 | 19780 ft | 355 kts | 340° |
| 2026-04-21 17:48 | 55.16602 | -3.10655 | 19357 ft | 353 kts | 340° |
| 2026-04-21 17:49 | 55.19595 | -3.12840 | 18807 ft | 351 kts | 340° |
| 2026-04-21 17:49 | 55.21835 | -3.14482 | 18392 ft | 347 kts | 340° |
| 2026-04-21 17:49 | 55.24056 | -3.16115 | 17914 ft | 345 kts | 341° |
| 2026-04-21 17:49 | 55.26266 | -3.17744 | 17432 ft | 344 kts | 341° |
| 2026-04-21 17:50 | 55.28471 | -3.19273 | 17179 ft | 335 kts | 347° |
| 2026-04-21 17:50 | 55.29944 | -3.19885 | 17014 ft | 323 kts | 355° |
| 2026-04-21 17:50 | 55.32152 | -3.20100 | 16521 ft | 313 kts | 6° |
| 2026-04-21 17:50 | 55.34300 | -3.19772 | 15844 ft | 308 kts | 10° |
| 2026-04-21 17:51 | 55.37114 | -3.19315 | 14974 ft | 305 kts | 8° |
| 2026-04-21 17:51 | 55.39213 | -3.18980 | 14343 ft | 302 kts | 9° |
| 2026-04-21 17:51 | 55.41293 | -3.18650 | 13653 ft | 299 kts | 8° |
| 2026-04-21 17:51 | 55.42659 | -3.18435 | 13201 ft | 297 kts | 10° |
| 2026-04-21 17:52 | 55.44702 | -3.18115 | 12544 ft | 293 kts | 10° |
| 2026-04-21 17:52 | 55.46723 | -3.17803 | 11858 ft | 290 kts | 10° |
| 2026-04-21 17:52 | 55.48725 | -3.17493 | 11197 ft | 287 kts | 9° |
| 2026-04-21 17:52 | 55.50735 | -3.17787 | 10495 ft | 294 kts | 345° |
| 2026-04-21 17:53 | 55.52946 | -3.20453 | 9703 ft | 296 kts | 311° |
| 2026-04-21 17:53 | 55.54116 | -3.23443 | 9032 ft | 296 kts | 306° |
| 2026-04-21 17:53 | 55.54881 | -3.25494 | 8600 ft | 297 kts | 305° |
| 2026-04-21 17:53 | 55.55994 | -3.28494 | 8295 ft | 295 kts | 306° |
| 2026-04-21 17:54 | 55.57113 | -3.31513 | 8012 ft | 292 kts | 305° |
| 2026-04-21 17:54 | 55.58225 | -3.34510 | 7673 ft | 291 kts | 305° |
| 2026-04-21 17:54 | 55.59334 | -3.37502 | 7408 ft | 291 kts | 306° |
| 2026-04-21 17:54 | 55.60417 | -3.40429 | 7181 ft | 276 kts | 306° |
| 2026-04-21 17:55 | 55.61435 | -3.43185 | 7052 ft | 262 kts | 306° |
| 2026-04-21 17:55 | 55.62432 | -3.45873 | 6940 ft | 262 kts | 306° |
| 2026-04-21 17:55 | 55.63424 | -3.48544 | 6819 ft | 258 kts | 306° |
| 2026-04-21 17:55 | 55.64390 | -3.51150 | 6688 ft | 255 kts | 306° |
| 2026-04-21 17:56 | 55.65362 | -3.53781 | 6556 ft | 255 kts | 305° |
| 2026-04-21 17:56 | 55.66328 | -3.56407 | 6424 ft | 254 kts | 306° |
| 2026-04-21 17:56 | 55.67295 | -3.59040 | 6293 ft | 256 kts | 306° |
| 2026-04-21 17:56 | 55.68264 | -3.61683 | 6158 ft | 256 kts | 306° |
| 2026-04-21 17:57 | 55.69362 | -3.64134 | 5903 ft | 252 kts | 319° |
| 2026-04-21 17:57 | 55.70680 | -3.66132 | 5610 ft | 249 kts | 325° |
| 2026-04-21 17:57 | 55.71984 | -3.68012 | 5469 ft | 240 kts | 325° |
| 2026-04-21 17:57 | 55.73254 | -3.69856 | 5338 ft | 232 kts | 325° |
| 2026-04-21 17:58 | 55.74482 | -3.71643 | 5206 ft | 224 kts | 325° |
| 2026-04-21 17:58 | 55.75661 | -3.73389 | 5085 ft | 217 kts | 323° |
| 2026-04-21 17:58 | 55.76736 | -3.75199 | 4942 ft | 210 kts | 320° |
| 2026-04-21 17:58 | 55.77756 | -3.77023 | 4707 ft | 207 kts | 319° |
| 2026-04-21 17:59 | 55.78833 | -3.78671 | 4426 ft | 199 kts | 342° |
| 2026-04-21 17:59 | 55.80115 | -3.78922 | 4143 ft | 180 kts | 24° |
| 2026-04-21 17:59 | 55.81110 | -3.77779 | 4005 ft | 169 kts | 57° |
| 2026-04-21 17:59 | 55.81738 | -3.76030 | 3989 ft | 168 kts | 63° |
| 2026-04-21 18:00 | 55.82339 | -3.74280 | 3995 ft | 168 kts | 62° |
| 2026-04-21 18:00 | 55.82951 | -3.72498 | 3993 ft | 170 kts | 62° |
| 2026-04-21 18:00 | 55.83567 | -3.70706 | 4001 ft | 170 kts | 63° |
| 2026-04-21 18:00 | 55.84186 | -3.68906 | 4001 ft | 170 kts | 62° |
| 2026-04-21 18:01 | 55.84802 | -3.67114 | 3875 ft | 169 kts | 62° |
| 2026-04-21 18:01 | 55.85413 | -3.65336 | 3688 ft | 168 kts | 62° |
| 2026-04-21 18:01 | 55.86020 | -3.63567 | 3461 ft | 167 kts | 62° |
| 2026-04-21 18:01 | 55.86625 | -3.61803 | 3232 ft | 166 kts | 62° |
| 2026-04-21 18:02 | 55.87227 | -3.60047 | 3035 ft | 164 kts | 62° |
| 2026-04-21 18:02 | 55.87809 | -3.58349 | 2795 ft | 162 kts | 62° |
| 2026-04-21 18:02 | 55.88393 | -3.56642 | 2556 ft | 160 kts | 61° |
| 2026-04-21 18:02 | 55.88961 | -3.54980 | 2332 ft | 152 kts | 62° |
| 2026-04-21 18:03 | 55.89487 | -3.53445 | 2122 ft | 137 kts | 61° |
| 2026-04-21 18:03 | 55.89964 | -3.52047 | 1946 ft | 127 kts | 63° |
| 2026-04-21 18:03 | 55.90420 | -3.50710 | 1770 ft | 125 kts | 62° |
| 2026-04-21 18:03 | 55.90870 | -3.49390 | 1597 ft | 123 kts | 62° |
| 2026-04-21 18:04 | 55.91315 | -3.48082 | 1428 ft | 123 kts | 62° |
| 2026-04-21 18:04 | 55.91757 | -3.46786 | 1238 ft | 123 kts | 60° |
| 2026-04-21 18:04 | 55.92205 | -3.45471 | 1042 ft | 122 kts | 62° |
| 2026-04-21 18:04 | 55.92645 | -3.44166 | 857 ft | 124 kts | 61° |
| 2026-04-21 18:05 | 55.93093 | -3.42863 | 672 ft | 123 kts | 59° |
| 2026-04-21 18:05 | 55.93544 | -3.41550 | 490 ft | 123 kts | 59° |
| 2026-04-21 18:05 | 55.93986 | -3.40242 | 354 ft | 125 kts | 59° |
| 2026-04-21 18:05 | 55.94429 | -3.38935 | 171 ft | 122 kts | 59° |
| 2026-04-21 18:06 | 55.94851 | -3.37688 | 114 ft | 105 kts | 58° |
| 2026-04-21 18:06 | 55.95146 | -3.36819 | 114 ft | 57 kts | 59° |
| 2026-04-21 18:06 | 55.95300 | -3.36364 | 111 ft | 36 kts | 58° |
| 2026-04-21 18:06 | 55.95427 | -3.35994 | 111 ft | 34 kts | 58° |
| 2026-04-21 18:07 | 55.95532 | -3.35682 | 113 ft | 21 kts | 59° |
| 2026-04-21 18:07 | 55.95549 | -3.35501 | 113 ft | 15 kts | 130° |
| 2026-04-21 18:07 | 55.95469 | -3.35412 | 114 ft | 9 kts | 156° |
| 2026-04-21 18:07 | 55.95410 | -3.35462 | 116 ft | 12 kts | 235° |
| 2026-04-21 18:08 | 55.95363 | -3.35605 | 113 ft | 15 kts | 237° |
| 2026-04-21 18:08 | 55.95302 | -3.35784 | 115 ft | 19 kts | 237° |
| 2026-04-21 18:08 | 55.95228 | -3.35998 | 112 ft | 22 kts | 238° |
| 2026-04-21 18:08 | 55.95143 | -3.36254 | 116 ft | 26 kts | 238° |
| 2026-04-21 18:09 | 55.95074 | -3.36396 | 114 ft | 13 kts | 186° |
| 2026-04-21 18:09 | 55.94991 | -3.36461 | 116 ft | 13 kts | 238° |
| 2026-04-21 18:09 | 55.94956 | -3.36540 | 115 ft | 7 kts | 199° |
| 2026-04-21 18:09 | 55.94915 | -3.36505 | 114 ft | 2 kts | 148° |
| 2026-04-21 18:10 | 55.94906 | -3.36495 | 114 ft | 3 kts | 148° |
| 2026-04-21 18:10 | 55.94901 | -3.36491 | 114 ft | 0 kts | 151° |
| 2026-04-21 18:13 | 55.94902 | -3.36491 | 115 ft | 0 kts | 151° |